Time;durP1;ratioP1;P1;durP2;ratioP2;P2;SDS_P1;SDS_P2;PMS_P1;PMS_P2;Temp;Humidity;BMP_temperature;BMP_pressure;BME280_temperature;BME280_humidity;BME280_pressure;Samples;Min_cycle;Max_cycle;Signal;HPM_P1;HPM_P2
2024/04/03 00:00:40;;;;;;;5.90;1.93;;;5.10;99.90;;;;;;5056334;28;20489;-86
2024/04/03 00:03:05;;;;;;;3.97;1.40;;;5.10;99.90;;;;;;5055773;28;20035;-86
2024/04/03 00:05:31;;;;;;;5.10;1.30;;;5.10;99.90;;;;;;5056838;28;20028;-86
2024/04/03 00:07:57;;;;;;;2.80;1.20;;;5.10;99.90;;;;;;5053929;28;20060;-86
2024/04/03 00:10:22;;;;;;;3.57;1.30;;;5.10;99.90;;;;;;5055225;28;20098;-85
2024/04/03 00:12:48;;;;;;;3.20;1.37;;;5.10;99.90;;;;;;5055847;28;20036;-85
2024/04/03 00:15:14;;;;;;;3.90;1.13;;;5.10;99.90;;;;;;5054399;28;20392;-85
2024/04/03 00:17:40;;;;;;;6.87;1.63;;;5.20;99.90;;;;;;5055914;28;20028;-86
2024/04/03 00:20:05;;;;;;;4.73;1.33;;;5.20;99.90;;;;;;5055718;28;20115;-86
2024/04/03 00:22:31;;;;;;;3.03;1.03;;;5.20;99.90;;;;;;5056265;28;20039;-86
2024/04/03 00:24:56;;;;;;;2.37;1.10;;;5.20;99.90;;;;;;5054949;28;20081;-85
2024/04/03 00:27:22;;;;;;;3.63;1.20;;;5.20;99.90;;;;;;5055909;28;20037;-86
2024/04/03 00:29:48;;;;;;;3.00;1.10;;;5.30;99.90;;;;;;5056402;28;20033;-86
2024/04/03 00:32:13;;;;;;;2.63;1.27;;;5.30;99.90;;;;;;5055318;28;20041;-85
2024/04/03 00:34:39;;;;;;;1.90;1.00;;;5.30;99.90;;;;;;5055436;28;20059;-85
2024/04/03 00:37:06;;;;;;;2.90;1.10;;;5.30;99.90;;;;;;5055235;28;20049;-86
2024/04/03 00:39:34;;;;;;;3.13;1.00;;;5.30;99.90;;;;;;5053252;28;20025;-85
2024/04/03 00:42:00;;;;;;;2.37;1.30;;;5.30;99.90;;;;;;5055412;28;20564;-86
2024/04/03 00:44:26;;;;;;;2.03;1.20;;;5.30;99.90;;;;;;5055303;28;20037;-86
2024/04/03 00:46:52;;;;;;;3.07;1.00;;;5.30;99.90;;;;;;5054542;28;20047;-85
2024/04/03 00:49:19;;;;;;;2.87;0.90;;;5.30;99.90;;;;;;5055105;28;20658;-85
2024/04/03 00:51:47;;;;;;;7.10;1.13;;;5.30;99.90;;;;;;5053699;28;20040;-87
2024/04/03 00:54:13;;;;;;;2.63;0.83;;;5.40;99.90;;;;;;5055349;28;20038;-86
2024/04/03 00:56:39;;;;;;;3.20;1.50;;;5.40;99.90;;;;;;5054345;28;20116;-85
2024/04/03 00:59:05;;;;;;;1.73;1.10;;;5.40;99.90;;;;;;5054425;28;20552;-86
2024/04/03 01:01:30;;;;;;;3.03;0.97;;;5.30;99.90;;;;;;5053490;28;20117;-86
2024/04/03 01:03:56;;;;;;;5.70;1.67;;;5.40;99.90;;;;;;5055441;28;20025;-87
2024/04/03 01:06:22;;;;;;;5.20;1.50;;;5.40;99.90;;;;;;5055000;28;20032;-86
2024/04/03 01:08:47;;;;;;;2.17;1.30;;;5.30;99.90;;;;;;5052649;28;20046;-87
2024/04/03 01:11:13;;;;;;;2.33;1.23;;;5.30;99.90;;;;;;5053715;28;20492;-86
2024/04/03 01:13:38;;;;;;;6.43;1.20;;;5.30;99.90;;;;;;5053315;28;21449;-86
2024/04/03 01:16:04;;;;;;;3.07;1.60;;;5.30;99.90;;;;;;5057260;28;20120;-86
2024/04/03 01:18:31;;;;;;;3.67;1.20;;;5.30;99.90;;;;;;5056798;28;20033;-86
2024/04/03 01:20:57;;;;;;;3.53;1.30;;;5.20;99.90;;;;;;5058095;28;20033;-86
2024/04/03 01:23:22;;;;;;;6.60;1.47;;;5.20;99.90;;;;;;5056048;28;20429;-87
2024/04/03 01:25:49;;;;;;;3.70;1.20;;;5.20;99.90;;;;;;5055764;28;20094;-86
2024/04/03 01:28:16;;;;;;;3.53;1.30;;;5.20;99.90;;;;;;5054525;28;20477;-87
2024/04/03 01:30:41;;;;;;;4.73;1.30;;;5.20;99.90;;;;;;5052219;28;20159;-86
2024/04/03 01:33:07;;;;;;;3.00;1.40;;;5.20;99.90;;;;;;5054143;28;20027;-85
2024/04/03 01:35:33;;;;;;;3.70;1.27;;;5.10;99.90;;;;;;5053582;28;20067;-86
2024/04/03 01:37:59;;;;;;;2.93;1.30;;;5.10;99.90;;;;;;5053634;28;20035;-86
2024/04/03 01:40:24;;;;;;;4.77;1.27;;;5.10;99.90;;;;;;5054168;28;20025;-86
2024/04/03 01:42:50;;;;;;;2.60;1.20;;;5.00;99.90;;;;;;5053919;28;21371;-87
2024/04/03 01:45:16;;;;;;;5.00;1.40;;;5.00;99.90;;;;;;5052439;28;20552;-86
2024/04/03 01:47:46;;;;;;;2.03;1.30;;;5.00;99.90;;;;;;5053289;28;20036;-86
2024/04/03 01:50:22;;;;;;;4.17;1.30;;;5.00;99.90;;;;;;5053437;28;20081;-86
2024/04/03 01:52:47;;;;;;;3.73;1.23;;;5.00;99.90;;;;;;5053821;28;20037;-86
2024/04/03 01:55:14;;;;;;;2.27;1.30;;;5.00;99.90;;;;;;5052295;28;20033;-86
2024/04/03 01:57:39;;;;;;;3.00;1.30;;;5.00;99.90;;;;;;5053785;28;20039;-86
2024/04/03 02:00:06;;;;;;;2.80;1.30;;;5.00;99.90;;;;;;5053947;28;20028;-86
2024/04/03 02:02:32;;;;;;;1.73;1.20;;;5.00;99.90;;;;;;5052991;28;20035;-86
2024/04/03 02:04:57;;;;;;;1.37;1.10;;;5.00;99.90;;;;;;5051806;28;20036;-86
2024/04/03 02:07:23;;;;;;;2.50;1.10;;;5.00;99.90;;;;;;5053955;28;20035;-86
2024/04/03 02:09:48;;;;;;;5.73;1.57;;;5.00;99.90;;;;;;5053380;28;20025;-86
2024/04/03 02:12:14;;;;;;;3.57;1.27;;;5.00;99.90;;;;;;5053558;28;21509;-86
2024/04/03 02:14:40;;;;;;;2.20;1.10;;;5.00;99.90;;;;;;5052364;28;20032;-86
2024/04/03 02:17:05;;;;;;;4.70;1.33;;;4.90;99.90;;;;;;5052797;28;20036;-86
2024/04/03 02:19:31;;;;;;;2.33;1.20;;;4.90;99.90;;;;;;5053666;28;20074;-86
2024/04/03 02:21:56;;;;;;;2.23;1.20;;;4.90;99.90;;;;;;5052120;28;20036;-86
2024/04/03 02:24:22;;;;;;;6.33;1.40;;;4.90;99.90;;;;;;5054336;28;20044;-86
2024/04/03 02:26:48;;;;;;;4.53;1.20;;;4.80;99.90;;;;;;5052447;28;20025;-86
2024/04/03 02:29:14;;;;;;;2.50;1.10;;;4.80;99.90;;;;;;5051921;28;20021;-86
2024/04/03 02:31:40;;;;;;;1.73;1.00;;;4.80;99.90;;;;;;5053301;28;20078;-86
2024/04/03 02:34:05;;;;;;;3.40;1.10;;;4.70;99.90;;;;;;5052425;28;20033;-86
2024/04/03 02:36:31;;;;;;;1.80;1.30;;;4.70;99.90;;;;;;5053012;28;20035;-87
2024/04/03 02:38:56;;;;;;;2.40;1.30;;;4.70;99.90;;;;;;5052256;28;20496;-85
2024/04/03 02:41:22;;;;;;;2.97;1.13;;;4.70;99.90;;;;;;5051271;28;20032;-86
2024/04/03 02:43:47;;;;;;;1.47;1.00;;;4.70;99.90;;;;;;5054348;28;20021;-86
2024/04/03 02:46:13;;;;;;;2.33;1.23;;;4.60;99.90;;;;;;5052711;28;20042;-86
2024/04/03 02:48:38;;;;;;;2.80;1.30;;;4.60;99.90;;;;;;5052794;28;20005;-86
2024/04/03 02:51:07;;;;;;;2.33;1.20;;;4.60;99.90;;;;;;5052207;28;20048;-86
2024/04/03 02:53:33;;;;;;;4.87;1.50;;;4.60;99.90;;;;;;5052330;28;20025;-86
2024/04/03 02:56:06;;;;;;;1.73;1.17;;;4.60;99.90;;;;;;5051928;28;20041;-87
2024/04/03 02:58:36;;;;;;;3.07;1.30;;;4.60;99.90;;;;;;5052127;28;21365;-87
2024/04/03 03:01:02;;;;;;;2.67;1.30;;;4.50;99.90;;;;;;5052743;28;20382;-86
2024/04/03 03:03:29;;;;;;;2.03;1.20;;;4.50;99.90;;;;;;5053005;28;20033;-87
2024/04/03 03:05:56;;;;;;;2.23;1.30;;;4.50;99.90;;;;;;5053051;28;20389;-86
2024/04/03 03:08:22;;;;;;;3.63;1.10;;;4.50;99.90;;;;;;5052612;28;20035;-86
2024/04/03 03:10:47;;;;;;;4.00;1.30;;;4.40;99.90;;;;;;5051158;28;20409;-85
2024/04/03 03:13:13;;;;;;;2.97;1.30;;;4.40;99.90;;;;;;5053099;28;20135;-86
2024/04/03 03:15:38;;;;;;;2.53;1.30;;;4.40;99.90;;;;;;5056025;28;20028;-87
2024/04/03 03:18:04;;;;;;;2.00;1.30;;;4.40;99.90;;;;;;5054739;28;20032;-87
2024/04/03 03:20:29;;;;;;;3.13;1.20;;;4.40;99.90;;;;;;5055958;28;20045;-87
2024/04/03 03:22:55;;;;;;;4.00;1.30;;;4.40;99.90;;;;;;5055097;28;20048;-86
2024/04/03 03:25:21;;;;;;;4.63;1.30;;;4.30;99.90;;;;;;5055960;28;20449;-87
2024/04/03 03:27:46;;;;;;;2.63;1.30;;;4.30;99.90;;;;;;5057468;28;20021;-86
2024/04/03 03:30:12;;;;;;;2.77;1.40;;;4.30;99.90;;;;;;5052285;28;20032;-86
2024/04/03 03:32:37;;;;;;;2.50;1.00;;;4.30;99.90;;;;;;5055038;28;20041;-86
2024/04/03 03:35:03;;;;;;;1.63;1.30;;;4.30;99.90;;;;;;5055360;28;20440;-86
2024/04/03 03:37:28;;;;;;;2.63;1.20;;;4.30;99.90;;;;;;5055991;28;20032;-86
2024/04/03 03:39:54;;;;;;;2.97;1.40;;;4.20;99.90;;;;;;5055738;28;20035;-86
2024/04/03 03:42:22;;;;;;;2.67;1.30;;;4.20;99.90;;;;;;5055989;28;20183;-87
2024/04/03 03:44:49;;;;;;;1.90;1.23;;;4.20;99.90;;;;;;5055400;28;20081;-85
2024/04/03 03:47:14;;;;;;;3.03;1.13;;;4.20;99.90;;;;;;5055945;28;20036;-87
2024/04/03 03:52:36;;;;;;;3.97;1.30;;;4.10;99.90;;;;;;5056224;28;20124;-85
2024/04/03 03:55:02;;;;;;;3.67;1.60;;;4.10;99.90;;;;;;5054699;28;20025;-87
2024/04/03 03:57:31;;;;;;;2.83;1.33;;;4.10;99.90;;;;;;5055771;28;20081;-86
2024/04/03 03:59:57;;;;;;;4.70;1.37;;;4.00;99.90;;;;;;5053649;28;20554;-86
2024/04/03 04:02:23;;;;;;;3.83;1.30;;;4.00;99.90;;;;;;5055528;28;20029;-86
2024/04/03 04:04:50;;;;;;;2.40;1.30;;;4.00;99.90;;;;;;5055724;28;20032;-86
2024/04/03 04:07:19;;;;;;;2.77;1.37;;;4.00;99.90;;;;;;5054490;28;20034;-86
2024/04/03 04:09:47;;;;;;;2.90;1.33;;;4.00;99.90;;;;;;5055229;28;20021;-87
2024/04/03 04:12:13;;;;;;;5.03;1.37;;;3.90;99.90;;;;;;5052861;28;20898;-86
2024/04/03 04:14:38;;;;;;;3.60;1.30;;;3.90;99.90;;;;;;5054087;28;20073;-86
2024/04/03 04:17:04;;;;;;;4.33;1.43;;;3.90;99.90;;;;;;5054310;28;20459;-86
2024/04/03 04:19:30;;;;;;;5.23;1.37;;;3.90;99.90;;;;;;5055397;28;21405;-86
2024/04/03 04:21:55;;;;;;;2.93;1.37;;;3.80;99.90;;;;;;5055287;28;20404;-85
2024/04/03 04:24:22;;;;;;;3.73;1.30;;;3.80;99.90;;;;;;5054575;28;20124;-86
2024/04/03 04:26:48;;;;;;;5.60;1.40;;;3.80;99.90;;;;;;5054349;28;20578;-73
2024/04/03 04:29:13;;;;;;;3.40;1.33;;;3.70;99.90;;;;;;5054872;28;20029;-86
2024/04/03 04:31:39;;;;;;;3.10;1.30;;;3.70;99.90;;;;;;5054247;28;20028;-86
2024/04/03 04:34:05;;;;;;;2.97;1.33;;;3.60;99.90;;;;;;5054938;28;20035;-86
2024/04/03 04:36:30;;;;;;;4.33;1.50;;;3.60;99.90;;;;;;5053430;28;20033;-86
2024/04/03 04:38:56;;;;;;;3.43;1.60;;;3.60;99.90;;;;;;5054565;28;20036;-86
2024/04/03 04:41:21;;;;;;;4.00;1.90;;;3.60;99.90;;;;;;5055328;28;20047;-86
2024/04/03 04:43:47;;;;;;;7.17;2.27;;;3.60;99.90;;;;;;5052571;28;20041;-86
2024/04/03 04:46:12;;;;;;;4.77;2.40;;;3.60;99.90;;;;;;5053530;28;20029;-86
2024/04/03 04:48:38;;;;;;;5.90;2.30;;;3.50;99.90;;;;;;5054586;28;20167;-86
2024/04/03 04:51:05;;;;;;;4.80;2.37;;;3.60;99.90;;;;;;5053253;28;20143;-87
2024/04/03 04:53:30;;;;;;;9.90;5.37;;;3.50;99.90;;;;;;5058206;28;20052;-86
2024/04/03 04:56:00;;;;;;;8.63;3.57;;;3.50;99.90;;;;;;5057415;28;20193;-86
2024/04/03 04:58:25;;;;;;;6.40;2.80;;;3.50;99.90;;;;;;5054891;28;20053;-86
2024/04/03 05:01:02;;;;;;;6.70;1.90;;;3.50;99.90;;;;;;5053088;28;20096;-86
2024/04/03 05:03:28;;;;;;;4.80;1.83;;;3.60;99.90;;;;;;5052978;28;20039;-86
2024/04/03 05:05:54;;;;;;;5.37;1.80;;;3.60;99.90;;;;;;5048579;28;20036;-86
2024/04/03 05:08:19;;;;;;;2.90;1.40;;;3.60;99.90;;;;;;5051406;28;20218;-86
2024/04/03 05:10:52;;;;;;;4.87;1.77;;;3.60;99.90;;;;;;5052345;28;20424;-86
2024/04/03 05:13:18;;;;;;;5.90;1.60;;;3.70;99.90;;;;;;5053483;28;20033;-86
2024/04/03 05:15:45;;;;;;;2.70;1.20;;;3.70;99.90;;;;;;5052323;28;20023;-86
2024/04/03 05:18:11;;;;;;;2.03;1.30;;;3.70;99.90;;;;;;5051707;28;20196;-86
2024/04/03 05:20:37;;;;;;;8.13;2.30;;;3.70;99.90;;;;;;5049199;28;20154;-86
2024/04/03 05:23:03;;;;;;;2.83;1.50;;;3.80;99.90;;;;;;5053867;28;20041;-86
2024/04/03 05:25:29;;;;;;;3.80;1.60;;;3.80;99.90;;;;;;5054351;28;20059;-86
2024/04/03 05:27:54;;;;;;;2.93;1.57;;;3.80;99.90;;;;;;5054684;28;20163;-86
2024/04/03 05:30:20;;;;;;;4.30;1.87;;;3.90;99.90;;;;;;5053564;28;20031;-86
2024/04/03 05:32:46;;;;;;;2.47;1.30;;;4.00;99.90;;;;;;5053946;28;20122;-86
2024/04/03 05:35:12;;;;;;;2.63;1.50;;;4.00;99.90;;;;;;5052791;28;20029;-86
2024/04/03 05:37:38;;;;;;;3.90;1.70;;;4.10;99.90;;;;;;5051026;28;20021;-86
2024/04/03 05:40:05;;;;;;;4.23;1.60;;;4.20;99.90;;;;;;5052173;28;20035;-87
2024/04/03 05:42:31;;;;;;;2.90;1.33;;;4.30;99.90;;;;;;5050967;28;20025;-86
2024/04/03 05:44:57;;;;;;;7.57;1.43;;;4.30;99.90;;;;;;5053269;28;20495;-85
2024/04/03 05:47:23;;;;;;;5.90;1.50;;;4.40;99.90;;;;;;5053051;28;20021;-87
2024/04/03 05:49:53;;;;;;;5.90;1.43;;;4.50;99.90;;;;;;5052660;28;20032;-86
2024/04/03 05:52:18;;;;;;;7.60;1.50;;;4.60;99.90;;;;;;5054115;28;20040;-87
2024/04/03 05:54:46;;;;;;;3.47;1.20;;;4.70;99.90;;;;;;5052218;28;21345;-86
2024/04/03 05:57:12;;;;;;;3.80;1.10;;;4.80;99.90;;;;;;5050193;28;20033;-86
2024/04/03 05:59:38;;;;;;;2.23;1.23;;;4.90;99.90;;;;;;5053750;28;20021;-86
2024/04/03 06:02:03;;;;;;;2.63;1.27;;;5.00;99.90;;;;;;5053271;28;20086;-86
2024/04/03 06:04:29;;;;;;;2.90;1.20;;;5.10;99.90;;;;;;5053577;28;20024;-87
2024/04/03 06:06:56;;;;;;;5.73;1.80;;;5.20;99.90;;;;;;5051748;28;20033;-86
2024/04/03 06:09:22;;;;;;;2.63;1.27;;;5.30;99.90;;;;;;5052395;28;20029;-86
2024/04/03 06:11:47;;;;;;;2.80;1.53;;;5.40;99.90;;;;;;5051325;28;20092;-86
2024/04/03 06:14:13;;;;;;;1.50;1.10;;;5.50;99.90;;;;;;5053913;28;20024;-86
2024/04/03 06:16:38;;;;;;;2.00;1.30;;;5.60;99.90;;;;;;5053677;28;20029;-86
2024/04/03 06:19:09;;;;;;;1.97;1.20;;;5.70;99.90;;;;;;5057828;28;20122;-85
2024/04/03 06:21:35;;;;;;;3.00;1.20;;;5.70;99.90;;;;;;5057101;28;20171;-84
2024/04/03 06:24:03;;;;;;;2.23;1.27;;;5.80;99.90;;;;;;5056576;28;20099;-84
2024/04/03 06:26:28;;;;;;;2.43;1.40;;;5.90;99.90;;;;;;5056598;28;20098;-85
2024/04/03 06:28:54;;;;;;;4.93;1.40;;;6.00;99.90;;;;;;5053633;28;20033;-86
2024/04/03 06:31:20;;;;;;;4.77;1.90;;;6.10;99.90;;;;;;5053984;28;20048;-86
2024/04/03 06:33:50;;;;;;;3.40;1.47;;;6.20;99.90;;;;;;5054767;28;20028;-84
2024/04/03 06:36:16;;;;;;;5.67;1.40;;;6.30;99.90;;;;;;5057504;28;20045;-83
2024/04/03 06:38:42;;;;;;;2.00;1.00;;;6.40;99.90;;;;;;5056065;28;20039;-82
2024/04/03 06:41:08;;;;;;;3.47;1.30;;;6.60;99.90;;;;;;5055631;28;20440;-81
2024/04/03 06:43:34;;;;;;;2.13;1.10;;;6.70;99.90;;;;;;5057252;28;20117;-84
2024/04/03 06:45:59;;;;;;;6.57;1.30;;;6.80;99.90;;;;;;5055938;28;21377;-85
2024/04/03 06:48:25;;;;;;;6.53;1.40;;;6.90;99.90;;;;;;5053591;28;20372;-88
2024/04/03 06:50:54;;;;;;;1.77;1.03;;;7.10;99.90;;;;;;5057524;28;20028;-87
2024/04/03 06:53:20;;;;;;;2.07;1.23;;;7.20;99.90;;;;;;5057391;28;20040;-87
2024/04/03 06:55:56;;;;;;;1.67;1.07;;;7.30;99.90;;;;;;5056075;28;20435;-87
2024/04/03 06:58:22;;;;;;;2.90;1.00;;;7.50;99.90;;;;;;5055940;28;20031;-88
2024/04/03 07:00:48;;;;;;;4.33;0.97;;;7.60;99.90;;;;;;5057050;28;20017;-86
2024/04/03 07:03:14;;;;;;;1.77;1.07;;;7.70;99.90;;;;;;5058607;28;20028;-86
2024/04/03 07:05:39;;;;;;;4.33;1.10;;;7.90;99.90;;;;;;5052169;28;20031;-85
2024/04/03 07:08:06;;;;;;;2.90;1.40;;;8.00;99.90;;;;;;5056871;28;20020;-86
2024/04/03 07:10:32;;;;;;;2.03;1.10;;;8.10;99.90;;;;;;5054837;28;20024;-86
2024/04/03 07:13:01;;;;;;;3.83;1.37;;;8.30;99.90;;;;;;5055122;28;20033;-87
2024/04/03 07:15:29;;;;;;;2.83;1.23;;;8.40;99.90;;;;;;5054805;28;20021;-87
2024/04/03 07:17:54;;;;;;;3.33;1.40;;;8.40;99.90;;;;;;5054598;28;20021;-87
2024/04/03 07:20:24;;;;;;;2.20;1.50;;;8.50;99.90;;;;;;5055788;28;20098;-86
2024/04/03 07:22:51;;;;;;;2.57;1.37;;;8.60;99.90;;;;;;5056582;28;20028;-86
2024/04/03 07:25:17;;;;;;;2.83;1.27;;;8.60;99.90;;;;;;5055504;28;20512;-86
2024/04/03 07:27:45;;;;;;;2.30;1.20;;;8.70;99.90;;;;;;5055193;28;20040;-86
2024/04/03 07:30:11;;;;;;;3.30;1.13;;;8.80;99.90;;;;;;5055932;28;20071;-86
2024/04/03 07:32:36;;;;;;;1.47;1.00;;;8.90;99.90;;;;;;5054065;28;20503;-73
2024/04/03 07:35:02;;;;;;;1.67;1.00;;;8.90;99.90;;;;;;5056477;28;20123;-81
2024/04/03 07:37:28;;;;;;;6.77;1.57;;;9.00;99.90;;;;;;5059896;28;20029;-81
2024/04/03 07:39:53;;;;;;;1.97;1.00;;;9.10;99.90;;;;;;5059759;28;20038;-81
2024/04/03 07:42:19;;;;;;;3.17;1.13;;;9.10;99.90;;;;;;5057249;28;20029;-71
2024/04/03 07:44:45;;;;;;;5.93;1.10;;;9.10;99.90;;;;;;5054714;28;21165;-86
2024/04/03 07:47:10;;;;;;;4.17;1.63;;;9.20;99.90;;;;;;5053693;28;20065;-86
2024/04/03 07:49:36;;;;;;;5.83;1.10;;;9.20;99.90;;;;;;5054216;28;20028;-85
2024/04/03 07:52:01;;;;;;;3.20;1.00;;;9.20;99.90;;;;;;5055669;28;20067;-87
2024/04/03 07:54:27;;;;;;;7.03;1.70;;;9.20;99.90;;;;;;5052323;28;20059;-86
2024/04/03 07:56:52;;;;;;;4.57;0.90;;;9.20;99.90;;;;;;5052894;28;20036;-85
2024/04/03 07:59:19;;;;;;;2.90;1.00;;;9.20;99.90;;;;;;5053389;28;20052;-87
2024/04/03 08:01:45;;;;;;;5.10;1.00;;;9.20;99.90;;;;;;5054557;28;20159;-86
2024/04/03 08:04:10;;;;;;;5.43;1.30;;;9.20;99.90;;;;;;5054927;28;20035;-86
2024/04/03 08:06:36;;;;;;;8.77;1.37;;;9.20;99.90;;;;;;5053383;28;20139;-86
2024/04/03 08:09:02;;;;;;;6.63;1.30;;;9.30;99.90;;;;;;5054154;28;20028;-87
2024/04/03 08:11:30;;;;;;;4.80;1.07;;;9.30;99.90;;;;;;5054949;28;20029;-86
2024/04/03 08:13:55;;;;;;;2.20;1.17;;;9.40;99.90;;;;;;5052681;28;20406;-86
2024/04/03 08:16:21;;;;;;;5.87;1.50;;;9.40;99.90;;;;;;5052798;28;20025;-87
2024/04/03 08:18:47;;;;;;;4.23;1.00;;;9.40;99.90;;;;;;5053443;28;20032;-86
2024/04/03 08:21:13;;;;;;;3.67;1.00;;;9.50;99.90;;;;;;5056763;28;20055;-85
2024/04/03 08:23:38;;;;;;;4.57;1.13;;;9.50;99.90;;;;;;5057780;28;20138;-86
2024/04/03 08:26:06;;;;;;;4.17;1.10;;;9.50;99.90;;;;;;5057804;28;20028;-87
2024/04/03 08:28:33;;;;;;;1.63;1.00;;;9.60;99.90;;;;;;5057599;28;20033;-86
2024/04/03 08:30:58;;;;;;;4.43;1.10;;;9.70;99.90;;;;;;5051039;28;20047;-87
2024/04/03 08:33:24;;;;;;;3.23;0.90;;;9.70;99.90;;;;;;5053004;28;20045;-87
2024/04/03 08:35:58;;;;;;;3.80;1.40;;;9.80;99.90;;;;;;5049853;28;20078;-87
2024/04/03 08:38:24;;;;;;;4.57;1.10;;;9.80;99.90;;;;;;5055059;28;20121;-87
2024/04/03 08:40:56;;;;;;;2.90;1.10;;;9.90;99.90;;;;;;5052075;28;20107;-86
2024/04/03 08:43:23;;;;;;;2.30;1.20;;;9.90;99.90;;;;;;5053190;28;20097;-87
2024/04/03 08:45:49;;;;;;;4.60;1.10;;;10.00;99.90;;;;;;5052876;28;20064;-87
2024/04/03 08:48:20;;;;;;;3.03;1.10;;;10.10;99.90;;;;;;5053488;28;20027;-87
2024/04/03 08:50:46;;;;;;;2.70;1.00;;;10.10;99.90;;;;;;5054570;28;20013;-87
2024/04/03 08:53:16;;;;;;;3.67;1.27;;;10.10;99.90;;;;;;5052999;28;20033;-87
2024/04/03 08:55:43;;;;;;;3.90;0.93;;;10.10;99.90;;;;;;5052092;28;20029;-87
2024/04/03 08:58:09;;;;;;;1.53;0.97;;;10.20;99.90;;;;;;5051483;28;20036;-87
2024/04/03 09:00:36;;;;;;;1.47;0.90;;;10.20;99.90;;;;;;5052983;28;20708;-86
2024/04/03 09:03:01;;;;;;;2.27;0.87;;;10.30;99.90;;;;;;5054249;28;20397;-87
2024/04/03 09:05:27;;;;;;;3.70;1.00;;;10.30;99.90;;;;;;5053594;28;20040;-87
2024/04/03 09:08:03;;;;;;;4.03;1.40;;;10.40;99.90;;;;;;5052458;28;20036;-86
2024/04/03 09:10:38;;;;;;;5.57;1.30;;;10.50;99.90;;;;;;5052787;28;20125;-87
2024/04/03 09:13:05;;;;;;;2.45;1.40;;;10.50;99.90;;;;;;5052721;28;20255;-87
2024/04/03 09:15:31;;;;;;;1.80;1.00;;;10.60;99.90;;;;;;5051887;28;20036;-87
2024/04/03 09:18:04;;;;;;;2.67;1.00;;;10.60;99.90;;;;;;5052876;28;20100;-87
2024/04/03 09:20:30;;;;;;;4.60;1.10;;;10.70;99.90;;;;;;5053672;28;20436;-87
2024/04/03 09:22:57;;;;;;;3.43;1.13;;;10.80;99.90;;;;;;5052876;28;20029;-87
2024/04/03 09:25:31;;;;;;;3.87;1.50;;;10.90;99.90;;;;;;5051662;28;20039;-87
2024/04/03 09:28:05;;;;;;;3.67;1.67;;;11.00;99.90;;;;;;5051332;28;20060;-87
2024/04/03 09:30:33;;;;;;;3.83;1.50;;;11.10;99.90;;;;;;5051841;28;20132;-87
2024/04/03 09:33:03;;;;;;;1.83;1.08;;;11.10;99.90;;;;;;5050964;28;20544;-85
2024/04/03 09:35:33;;;;;;;5.57;1.10;;;11.20;99.90;;;;;;5051424;28;20035;-86
2024/04/03 09:37:59;;;;;;;4.20;1.37;;;11.20;99.90;;;;;;5050487;28;20039;-87
2024/04/03 09:40:26;;;;;;;4.53;1.17;;;11.30;99.90;;;;;;5052994;28;20107;-87
2024/04/03 09:43:12;;;;;;;1.83;1.10;;;11.30;99.90;;;;;;5052640;28;20035;-87
2024/04/03 09:45:38;;;;;;;3.70;1.13;;;11.30;99.90;;;;;;5052163;28;20059;-87
2024/04/03 09:48:05;;;;;;;1.87;0.90;;;11.40;99.90;;;;;;5053376;28;20056;-87
2024/04/03 09:50:44;;;;;;;5.85;1.10;;;11.40;99.90;;;;;;5052353;28;20029;-87
2024/04/03 09:53:14;;;;;;;2.70;0.80;;;11.50;99.90;;;;;;5052094;28;20033;-87
2024/04/03 09:55:42;;;;;;;1.27;0.90;;;11.50;99.90;;;;;;5052529;28;20561;-87
2024/04/03 09:58:12;;;;;;;2.03;1.00;;;11.60;99.90;;;;;;5053025;28;20091;-87
2024/04/03 10:00:38;;;;;;;1.15;0.85;;;11.60;99.90;;;;;;5052517;28;20025;-86
2024/04/03 10:03:19;;;;;;;2.15;0.90;;;11.70;99.90;;;;;;5052377;28;20151;-82
2024/04/03 10:05:45;;;;;;;3.90;1.00;;;11.80;99.90;;;;;;5052419;28;20484;-84
2024/04/03 10:08:12;;;;;;;4.07;1.33;;;11.90;99.90;;;;;;5052866;28;20028;-85
2024/04/03 10:10:45;;;;;;;2.13;1.00;;;12.00;99.90;;;;;;5052483;28;20029;-85
2024/04/03 10:13:29;;;;;;;2.47;1.20;;;12.10;99.90;;;;;;5052110;28;20090;-85
2024/04/03 10:16:05;;;;;;;1.60;0.80;;;12.20;99.90;;;;;;5052085;28;20032;-85
2024/04/03 10:18:35;;;;;;;3.15;1.20;;;12.40;99.90;;;;;;5052760;28;20036;-85
2024/04/03 10:21:02;;;;;;;2.70;1.20;;;12.50;99.90;;;;;;5052121;28;20029;-85
2024/04/03 10:23:27;;;;;;;1.83;1.00;;;12.70;99.90;;;;;;5051260;28;20029;-85
2024/04/03 10:25:53;;;;;;;2.33;1.08;;;12.90;99.90;;;;;;5052359;28;20031;-85
2024/04/03 10:28:19;;;;;;;3.45;1.00;;;13.00;99.90;;;;;;5052695;28;20094;-85
2024/04/03 10:30:54;;;;;;;2.63;1.08;;;13.10;99.90;;;;;;5051736;28;20036;-85
2024/04/03 10:33:21;;;;;;;1.92;1.00;;;13.20;99.90;;;;;;5051732;28;20045;-85
2024/04/03 10:35:48;;;;;;;1.50;1.10;;;13.20;99.90;;;;;;5052223;28;20036;-87
2024/04/03 10:38:13;;;;;;;2.17;1.20;;;13.30;99.90;;;;;;5050574;28;20451;-85
2024/04/03 10:40:39;;;;;;;4.55;1.23;;;13.30;99.90;;;;;;5051362;28;20029;-85
2024/04/03 10:43:05;;;;;;;2.45;1.00;;;13.20;99.90;;;;;;5051861;28;20036;-84
2024/04/03 10:45:30;;;;;;;4.82;1.10;;;13.10;99.90;;;;;;5050968;28;20130;-84
2024/04/03 10:47:56;;;;;;;3.38;1.02;;;13.20;99.90;;;;;;5051975;28;20033;-85
2024/04/03 10:50:22;;;;;;;2.60;1.08;;;13.30;99.90;;;;;;5052236;28;20025;-85
2024/04/03 10:52:50;;;;;;;2.17;0.93;;;13.40;99.90;;;;;;5050194;28;20070;-85
2024/04/03 10:55:20;;;;;;;3.72;1.25;;;13.60;99.90;;;;;;5053252;28;20024;-84
2024/04/03 10:57:52;;;;;;;4.95;1.92;;;13.70;99.90;;;;;;5053942;28;20068;-84
2024/04/03 11:00:20;;;;;;;4.32;1.23;;;13.80;99.90;;;;;;5051543;28;20025;-85
2024/04/03 11:02:46;;;;;;;5.13;1.55;;;13.90;99.90;;;;;;5052247;28;20385;-86
2024/04/03 11:05:14;;;;;;;2.00;1.10;;;14.00;99.90;;;;;;5051103;28;20406;-86
2024/04/03 11:07:44;;;;;;;3.83;1.55;;;14.00;99.90;;;;;;5052861;28;20019;-86
2024/04/03 11:10:11;;;;;;;2.35;0.95;;;14.00;99.90;;;;;;5051560;28;20664;-86
2024/04/03 11:12:37;;;;;;;4.13;1.20;;;14.00;99.90;;;;;;5050838;28;20055;-87
2024/04/03 11:15:10;;;;;;;2.47;1.10;;;14.00;99.90;;;;;;5049498;28;20062;-87
2024/04/03 11:17:36;;;;;;;5.30;1.00;;;14.00;99.90;;;;;;5051349;28;20037;-87
2024/04/03 11:20:03;;;;;;;3.70;1.08;;;14.10;99.90;;;;;;5051355;28;21412;-86
2024/04/03 11:22:29;;;;;;;4.00;1.27;;;14.10;99.90;;;;;;5051795;28;20033;-86
2024/04/03 11:24:55;;;;;;;2.35;0.80;;;14.20;99.90;;;;;;5051405;28;20036;-87
2024/04/03 11:27:22;;;;;;;2.63;0.73;;;14.40;99.90;;;;;;5050961;28;20088;-87
2024/04/03 11:29:47;;;;;;;3.92;1.00;;;14.60;99.90;;;;;;5051518;28;20029;-87
2024/04/03 11:32:16;;;;;;;2.28;0.90;;;14.70;99.90;;;;;;5050151;28;20030;-86
2024/04/03 11:34:41;;;;;;;2.00;0.98;;;14.90;99.90;;;;;;5052688;28;20028;-87
2024/04/03 11:37:07;;;;;;;1.75;0.85;;;15.00;99.90;;;;;;5056073;28;20126;-87
2024/04/03 11:39:36;;;;;;;4.97;1.10;;;15.00;99.90;;;;;;5055540;28;20032;-87
2024/04/03 11:42:01;;;;;;;2.55;1.00;;;15.10;99.90;;;;;;5053975;28;20028;-86
2024/04/03 11:44:27;;;;;;;2.17;0.93;;;15.20;99.90;;;;;;5053923;28;20040;-87
2024/04/03 11:46:53;;;;;;;1.80;1.05;;;15.10;99.90;;;;;;5056885;28;20032;-87
2024/04/03 11:49:18;;;;;;;1.55;0.93;;;15.20;99.90;;;;;;5056067;28;20072;-86
2024/04/03 11:51:46;;;;;;;3.28;0.98;;;15.30;99.90;;;;;;5058603;28;20047;-86
2024/04/03 11:54:13;;;;;;;4.85;1.00;;;15.30;99.90;;;;;;5062330;28;20033;-86
2024/04/03 11:56:39;;;;;;;5.85;1.00;;;15.30;99.90;;;;;;5059824;28;20595;-87
2024/04/03 11:59:06;;;;;;;2.75;0.75;;;15.30;99.90;;;;;;5057331;28;20021;-86
2024/04/03 12:01:32;;;;;;;2.03;1.00;;;15.20;99.90;;;;;;5052266;28;20134;-86
2024/04/03 12:03:58;;;;;;;1.60;1.00;;;15.20;99.90;;;;;;5054794;28;20044;-86
2024/04/03 12:06:24;;;;;;;5.05;1.13;;;15.20;99.90;;;;;;5051387;28;20449;-87
2024/04/03 12:08:50;;;;;;;3.15;1.23;;;15.20;99.90;;;;;;5052089;28;20029;-86
2024/04/03 12:11:16;;;;;;;2.50;1.10;;;15.20;99.90;;;;;;5053001;28;20059;-88
2024/04/03 12:13:44;;;;;;;5.15;1.38;;;15.10;99.90;;;;;;5053136;28;20784;-87
2024/04/03 12:16:13;;;;;;;3.17;0.90;;;15.00;99.90;;;;;;5051511;28;20047;-86
2024/04/03 12:18:49;;;;;;;5.75;1.15;;;15.00;99.90;;;;;;5053344;28;20947;-87
2024/04/03 12:21:18;;;;;;;4.65;1.15;;;15.00;99.90;;;;;;5053110;28;20041;-86
2024/04/03 12:23:46;;;;;;;4.03;1.00;;;14.90;99.90;;;;;;5053159;28;20046;-86
2024/04/03 12:26:13;;;;;;;4.72;1.20;;;14.90;99.90;;;;;;5050943;28;20037;-86
2024/04/03 12:28:39;;;;;;;3.42;0.93;;;14.90;99.90;;;;;;5050827;28;20031;-87
2024/04/03 12:31:05;;;;;;;4.43;1.10;;;15.00;99.90;;;;;;5051852;28;20420;-88
2024/04/03 12:33:30;;;;;;;3.00;0.88;;;15.00;99.90;;;;;;5051042;28;20040;-88
2024/04/03 12:35:56;;;;;;;1.95;0.95;;;15.00;99.90;;;;;;5051314;28;20029;-88
2024/04/03 12:38:21;;;;;;;2.53;0.88;;;15.00;99.90;;;;;;5051516;28;20033;-88
2024/04/03 12:40:48;;;;;;;7.00;1.17;;;15.10;99.90;;;;;;5052206;28;20033;-88
2024/04/03 12:43:14;;;;;;;3.22;1.00;;;15.20;99.90;;;;;;5050699;28;20025;-88
2024/04/03 12:45:39;;;;;;;1.90;0.90;;;15.30;99.90;;;;;;5050767;28;20029;-89
2024/04/03 12:48:06;;;;;;;2.17;0.90;;;15.50;99.90;;;;;;5052158;28;20100;-88
2024/04/03 12:50:31;;;;;;;3.78;1.40;;;15.60;99.90;;;;;;5051154;28;20021;-88
2024/04/03 12:52:57;;;;;;;2.08;1.10;;;15.80;99.90;;;;;;5051972;28;20095;-88